createdAt,value
2022-07-26T00:02:21.556Z,70.11
2022-07-26T00:04:48.012Z,70.55
2022-07-26T00:07:14.468Z,70.62
2022-07-26T00:09:44.957Z,70.48
2022-07-26T00:12:14.357Z,70.79
2022-07-26T00:14:40.834Z,70.37
2022-07-26T00:17:07.597Z,71.80
2022-07-26T00:19:34.064Z,71.43
2022-07-26T00:22:19.011Z,71.79
2022-07-26T00:24:45.477Z,71.93
2022-07-26T00:27:11.947Z,71.70
2022-07-26T00:29:38.333Z,71.75
2022-07-26T00:32:05.182Z,71.44
2022-07-26T00:34:31.726Z,71.20
2022-07-26T00:36:58.190Z,70.82
2022-07-26T00:39:24.692Z,70.68
2022-07-26T00:41:51.360Z,70.89
2022-07-26T00:44:17.861Z,70.74
2022-07-26T00:46:44.756Z,71.38
2022-07-26T00:49:12.999Z,70.51
2022-07-26T00:51:39.944Z,70.43
2022-07-26T00:54:08.070Z,70.93
2022-07-26T00:56:34.733Z,71.12
2022-07-26T00:59:01.765Z,73.61
2022-07-26T01:01:28.351Z,75.13
2022-07-26T01:03:54.955Z,75.56
2022-07-26T01:06:27.115Z,75.46
2022-07-26T01:08:54.360Z,74.04
2022-07-26T01:11:20.841Z,73.91
2022-07-26T01:13:48.581Z,73.69
2022-07-26T01:16:15.209Z,73.60
2022-07-26T01:18:41.788Z,73.45
2022-07-26T01:21:13.609Z,73.74
2022-07-26T01:23:41.489Z,74.45
2022-07-26T01:26:08.617Z,74.24
2022-07-26T01:28:39.569Z,73.98
2022-07-26T01:31:07.083Z,73.77
2022-07-26T01:33:34.809Z,73.57
2022-07-26T01:36:01.647Z,73.61
2022-07-26T01:38:28.457Z,73.44
2022-07-26T01:40:54.936Z,73.56
2022-07-26T01:43:21.394Z,72.83
2022-07-26T01:45:48.112Z,73.42
2022-07-26T01:48:14.893Z,73.48
2022-07-26T01:50:41.316Z,73.56
2022-07-26T01:53:07.798Z,74.03
2022-07-26T01:55:35.608Z,73.07
2022-07-26T01:58:02.990Z,73.17
2022-07-26T02:00:29.602Z,72.71
2022-07-26T02:02:56.176Z,72.86
2022-07-26T02:05:22.704Z,73.28
2022-07-26T02:07:49.447Z,74.23
2022-07-26T02:10:17.468Z,75.13
2022-07-26T02:12:44.413Z,74.39
2022-07-26T02:15:14.225Z,74.03
2022-07-26T02:17:41.241Z,73.90
2022-07-26T02:20:09.085Z,74.12
2022-07-26T02:22:36.101Z,73.38
2022-07-26T02:25:05.314Z,73.31
2022-07-26T02:27:32.721Z,72.90
2022-07-26T02:29:59.294Z,73.14
2022-07-26T02:32:25.839Z,72.63
2022-07-26T02:34:52.275Z,72.84
2022-07-26T02:37:18.701Z,72.91
2022-07-26T02:39:45.131Z,72.98
2022-07-26T02:42:11.581Z,72.81
2022-07-26T02:44:38.140Z,73.43
2022-07-26T02:47:04.731Z,73.30
2022-07-26T02:49:31.142Z,73.71
2022-07-26T02:51:57.642Z,73.64
2022-07-26T02:54:24.163Z,72.12
2022-07-26T02:56:50.588Z,71.03
2022-07-26T02:59:17.015Z,70.97
2022-07-26T03:01:43.558Z,70.16
2022-07-26T03:04:10.436Z,70.26
2022-07-26T03:06:37.372Z,69.99
2022-07-26T03:09:04.664Z,69.94
2022-07-26T03:11:31.123Z,68.90
2022-07-26T03:13:57.648Z,68.91
2022-07-26T03:16:29.033Z,68.92
2022-07-26T03:18:56.451Z,68.76
2022-07-26T03:21:23.223Z,68.98
2022-07-26T03:23:49.675Z,68.98
2022-07-26T03:26:16.176Z,68.82
2022-07-26T03:28:44.707Z,69.20
2022-07-26T03:31:12.903Z,69.33
2022-07-26T03:33:40.518Z,69.39
2022-07-26T03:36:11.246Z,69.15
2022-07-26T03:38:38.193Z,69.65
2022-07-26T03:41:05.508Z,69.43
2022-07-26T03:43:32.005Z,69.12
2022-07-26T03:46:03.022Z,68.59
2022-07-26T03:48:30.794Z,69.90
2022-07-26T03:50:57.355Z,70.62
2022-07-26T03:53:24.095Z,70.87
2022-07-26T03:56:09.975Z,70.93
2022-07-26T03:58:36.378Z,71.05
2022-07-26T04:01:04.140Z,70.05
2022-07-26T04:03:30.676Z,71.18
2022-07-26T04:05:57.608Z,70.75
2022-07-26T04:08:24.739Z,71.87
2022-07-26T04:10:51.328Z,71.73
2022-07-26T04:13:19.053Z,71.17
2022-07-26T04:15:45.767Z,71.55
2022-07-26T04:18:14.098Z,71.90
2022-07-26T04:20:40.887Z,71.37
2022-07-26T04:23:11.630Z,70.98
2022-07-26T04:25:41.087Z,70.73
2022-07-26T04:28:08.525Z,70.81
2022-07-26T04:30:35.020Z,69.67
2022-07-26T04:33:01.548Z,68.84
2022-07-26T04:35:28.415Z,70.34
2022-07-26T04:37:55.138Z,69.85
2022-07-26T04:40:23.741Z,67.33
2022-07-26T04:42:51.561Z,67.87
2022-07-26T04:45:18.565Z,67.92
2022-07-26T04:47:49.617Z,69.99
2022-07-26T04:50:16.659Z,69.71
2022-07-26T04:52:43.306Z,66.53
2022-07-26T04:55:10.665Z,63.45
2022-07-26T04:57:37.265Z,60.67
2022-07-26T05:00:21.400Z,59.63
2022-07-26T05:02:50.168Z,58.49
2022-07-26T05:05:16.663Z,56.47
2022-07-26T05:07:45.438Z,56.95
2022-07-26T05:10:12.821Z,56.14
2022-07-26T05:12:39.529Z,56.46
2022-07-26T05:15:07.204Z,55.58
2022-07-26T05:17:41.598Z,56.69
2022-07-26T05:20:09.675Z,56.38
2022-07-26T05:22:36.799Z,56.44
2022-07-26T05:25:04.880Z,56.60
2022-07-26T05:27:31.622Z,55.70
2022-07-26T05:29:58.541Z,54.80
2022-07-26T05:32:25.061Z,55.83
2022-07-26T05:34:51.493Z,56.78
2022-07-26T05:37:17.921Z,54.71
2022-07-26T05:39:44.317Z,56.00
2022-07-26T05:42:10.741Z,56.26
2022-07-26T05:44:37.200Z,54.51
2022-07-26T05:47:09.554Z,54.86
2022-07-26T05:49:40.365Z,55.36
2022-07-26T05:52:08.225Z,55.56
2022-07-26T05:54:34.868Z,56.18
2022-07-26T05:57:01.348Z,56.41
2022-07-26T05:59:28.481Z,56.31
2022-07-26T06:01:56.525Z,56.22
2022-07-26T06:04:25.907Z,55.20
2022-07-26T06:06:54.462Z,54.95
2022-07-26T06:09:21.617Z,55.53
2022-07-26T06:11:48.065Z,55.00
2022-07-26T06:14:14.966Z,55.56
2022-07-26T06:16:41.643Z,55.13
2022-07-26T06:19:08.181Z,55.61
2022-07-26T06:21:34.637Z,55.93
2022-07-26T06:24:01.100Z,55.73
2022-07-26T06:26:27.509Z,55.41
2022-07-26T06:28:53.979Z,54.07
2022-07-26T06:31:20.540Z,53.91
2022-07-26T06:33:47.573Z,54.08
2022-07-26T06:36:14.033Z,55.55
2022-07-26T06:38:40.520Z,55.29
2022-07-26T06:41:07.038Z,55.52
2022-07-26T06:43:33.546Z,54.41
2022-07-26T06:46:00.090Z,54.51
2022-07-26T06:48:26.779Z,54.00
2022-07-26T06:50:53.255Z,55.45
2022-07-26T06:53:19.696Z,55.65
2022-07-26T06:55:46.129Z,55.05
2022-07-26T06:58:12.674Z,55.27
2022-07-26T07:00:39.169Z,55.62
2022-07-26T07:03:05.662Z,55.76
2022-07-26T07:05:32.959Z,56.28
2022-07-26T07:07:59.522Z,55.65
2022-07-26T07:10:26.383Z,53.45
2022-07-26T07:12:52.852Z,53.17
2022-07-26T07:15:19.291Z,54.55
2022-07-26T07:17:45.735Z,55.17
2022-07-26T07:20:12.483Z,55.16
2022-07-26T07:22:38.973Z,54.96
2022-07-26T07:25:06.099Z,54.09
2022-07-26T07:27:33.102Z,54.50
2022-07-26T07:30:00.044Z,55.13
2022-07-26T07:32:26.587Z,53.04
2022-07-26T07:34:55.014Z,53.64
2022-07-26T07:37:21.550Z,53.32
2022-07-26T07:39:50.715Z,53.39
2022-07-26T07:42:19.176Z,52.54
2022-07-26T07:44:46.228Z,53.06
2022-07-26T07:47:12.727Z,52.25
2022-07-26T07:49:39.179Z,53.06
2022-07-26T07:52:06.188Z,53.75
2022-07-26T07:54:32.666Z,53.54
2022-07-26T07:56:59.121Z,53.34
2022-07-26T07:59:25.625Z,51.17
2022-07-26T08:01:52.140Z,51.81
2022-07-26T08:04:18.896Z,52.26
2022-07-26T08:06:50.413Z,52.16
2022-07-26T08:09:18.948Z,49.83
2022-07-26T08:11:45.680Z,51.15
2022-07-26T08:14:17.749Z,51.11
2022-07-26T08:16:44.732Z,48.49
2022-07-26T08:19:11.964Z,48.51
2022-07-26T08:21:38.554Z,48.19
2022-07-26T08:24:06.668Z,50.14
2022-07-26T08:26:33.102Z,51.06
2022-07-26T08:29:00.519Z,49.82
2022-07-26T08:31:30.539Z,49.30
2022-07-26T08:33:57.250Z,51.52
2022-07-26T08:36:23.853Z,51.38
2022-07-26T08:38:50.631Z,51.33
2022-07-26T08:41:20.308Z,50.78
2022-07-26T08:43:52.233Z,50.73
2022-07-26T08:46:26.424Z,50.24
2022-07-26T08:48:55.763Z,51.75
2022-07-26T08:51:24.626Z,52.21
2022-07-26T08:54:02.221Z,49.99
2022-07-26T08:56:31.388Z,49.41
2022-07-26T08:58:57.795Z,49.24
2022-07-26T09:01:24.385Z,47.94
2022-07-26T09:03:51.016Z,48.23
2022-07-26T09:06:18.871Z,47.16
2022-07-26T09:08:47.291Z,46.86
2022-07-26T09:11:33.045Z,47.87
2022-07-26T09:14:02.803Z,47.48
2022-07-26T09:16:30.467Z,48.46
2022-07-26T09:19:21.369Z,47.22
2022-07-26T09:21:48.224Z,46.99
2022-07-26T09:24:30.519Z,45.10
2022-07-26T09:26:58.984Z,46.30
2022-07-26T09:29:25.447Z,45.97
2022-07-26T09:31:52.003Z,45.49
2022-07-26T09:34:25.509Z,46.72
2022-07-26T09:36:54.596Z,46.67
2022-07-26T09:39:22.725Z,46.26
2022-07-26T09:42:26.955Z,45.84
2022-07-26T09:44:54.803Z,46.27
2022-07-26T09:47:21.457Z,46.74
2022-07-26T09:49:48.010Z,47.01
2022-07-26T09:52:15.474Z,45.75
2022-07-26T09:54:41.966Z,45.59
2022-07-26T09:57:08.579Z,45.27
2022-07-26T09:59:35.046Z,43.07
2022-07-26T10:02:01.838Z,42.34
2022-07-26T10:04:28.370Z,42.64
2022-07-26T10:06:58.198Z,42.30
2022-07-26T10:09:25.769Z,42.35
2022-07-26T10:11:59.770Z,43.63
2022-07-26T10:14:46.477Z,43.59
2022-07-26T10:17:31.134Z,42.40
2022-07-26T10:20:02.985Z,42.79
2022-07-26T10:22:34.025Z,42.22
2022-07-26T10:25:18.675Z,41.36
2022-07-26T10:27:49.907Z,42.01
2022-07-26T10:30:16.291Z,42.66
2022-07-26T10:33:03.993Z,43.16
2022-07-26T10:35:36.537Z,42.68
2022-07-26T10:38:07.263Z,41.23
2022-07-26T10:40:37.348Z,39.54
2022-07-26T10:46:15.812Z,39.87
2022-07-26T10:49:06.341Z,38.64
2022-07-26T10:51:36.374Z,39.00
2022-07-26T10:54:10.400Z,39.71
2022-07-26T10:56:38.027Z,40.51
2022-07-26T10:59:05.879Z,39.79
2022-07-26T11:01:41.401Z,39.62
2022-07-26T11:04:21.330Z,39.32
2022-07-26T11:06:48.335Z,40.14
2022-07-26T11:09:15.018Z,41.02
2022-07-26T11:11:46.870Z,41.53
2022-07-26T11:14:16.652Z,41.37
2022-07-26T11:16:46.701Z,40.85
2022-07-26T11:19:17.213Z,39.44
2022-07-26T11:21:45.434Z,39.76
2022-07-26T11:24:12.642Z,38.19
2022-07-26T11:26:44.371Z,38.58
2022-07-26T11:29:17.069Z,39.65
2022-07-26T11:31:51.207Z,39.46
2022-07-26T11:34:27.904Z,39.48
2022-07-26T11:36:56.721Z,39.96
2022-07-26T11:39:26.289Z,39.71
2022-07-26T11:42:01.204Z,39.87
2022-07-26T11:44:28.610Z,40.79
2022-07-26T11:46:56.019Z,40.72
2022-07-26T11:49:51.702Z,40.31
2022-07-26T11:52:12.408Z,38.86
2022-07-26T11:54:49.915Z,38.96
2022-07-26T11:57:17.445Z,39.21
2022-07-26T11:59:45.262Z,38.93
2022-07-26T12:02:13.519Z,38.72
2022-07-26T12:04:42.072Z,37.82
2022-07-26T12:07:17.424Z,37.68
2022-07-26T12:09:46.549Z,39.01
2022-07-26T12:12:23.319Z,37.91
2022-07-26T12:15:04.739Z,38.61
2022-07-26T12:17:34.883Z,37.88
2022-07-26T12:20:17.613Z,38.21
2022-07-26T12:23:04.886Z,37.97
2022-07-26T12:25:31.634Z,37.53
2022-07-26T12:27:58.186Z,36.82
2022-07-26T12:30:25.539Z,37.87
2022-07-26T12:33:02.132Z,37.83
2022-07-26T12:35:35.313Z,38.25
2022-07-26T12:38:02.289Z,37.19
2022-07-26T12:40:30.890Z,36.90
2022-07-26T12:43:02.251Z,37.18
2022-07-26T12:45:30.117Z,38.25
2022-07-26T12:47:58.604Z,36.39
2022-07-26T12:50:27.519Z,36.89
2022-07-26T12:53:01.436Z,38.34
2022-07-26T12:55:28.085Z,37.38
2022-07-26T12:57:55.859Z,36.76
2022-07-26T13:00:24.270Z,36.43
2022-07-26T13:02:51.392Z,36.48
2022-07-26T13:05:19.129Z,35.55
2022-07-26T13:07:45.627Z,35.52
2022-07-26T13:12:59.180Z,34.79
2022-07-26T13:15:37.267Z,35.97
2022-07-26T13:18:06.531Z,35.79
2022-07-26T13:20:33.051Z,35.29
2022-07-26T13:22:59.463Z,35.99
2022-07-26T13:25:28.950Z,36.61
2022-07-26T13:28:03.525Z,36.79
2022-07-26T13:30:30.114Z,35.54
2022-07-26T13:32:56.538Z,34.57
2022-07-26T13:35:22.993Z,34.27
2022-07-26T13:37:49.436Z,35.12
2022-07-26T13:40:16.012Z,35.11
2022-07-26T13:42:42.587Z,35.01
2022-07-26T13:45:09.681Z,35.87
2022-07-26T13:47:36.080Z,36.62
2022-07-26T13:50:02.587Z,36.33
2022-07-26T13:52:29.141Z,35.23
2022-07-26T13:54:55.561Z,35.66
2022-07-26T13:57:21.986Z,35.43
2022-07-26T13:59:48.453Z,36.02
2022-07-26T14:02:15.308Z,36.42
2022-07-26T14:04:42.519Z,36.58
2022-07-26T14:07:08.959Z,35.85
2022-07-26T14:09:35.345Z,34.21
2022-07-26T14:12:01.775Z,33.10
2022-07-26T14:14:28.264Z,33.43
2022-07-26T14:16:54.728Z,33.29
2022-07-26T14:19:21.195Z,33.28
2022-07-26T14:21:59.496Z,33.69
2022-07-26T14:24:27.353Z,33.35
2022-07-26T14:26:58.400Z,32.74
2022-07-26T14:29:26.004Z,31.99
2022-07-26T14:31:52.611Z,32.09
2022-07-26T14:34:19.176Z,31.51
2022-07-26T14:36:45.579Z,30.31
2022-07-26T14:39:12.030Z,31.15
2022-07-26T14:41:38.501Z,29.29
2022-07-26T14:44:05.149Z,30.19
2022-07-26T14:46:31.669Z,29.92
2022-07-26T14:48:58.677Z,30.33
2022-07-26T14:51:25.550Z,30.53
2022-07-26T14:53:52.767Z,30.38
2022-07-26T14:56:19.213Z,29.70
2022-07-26T14:58:45.643Z,29.87
2022-07-26T15:01:12.363Z,30.52
2022-07-26T15:03:38.978Z,30.63
2022-07-26T15:06:05.411Z,29.67
2022-07-26T15:08:31.838Z,29.88
2022-07-26T15:10:58.271Z,30.20
2022-07-26T15:13:24.713Z,31.32
2022-07-26T15:15:51.162Z,33.76
2022-07-26T15:18:17.620Z,37.14
2022-07-26T15:20:44.090Z,37.51
2022-07-26T15:23:11.982Z,39.39
2022-07-26T15:25:38.553Z,39.93
2022-07-26T15:28:05.625Z,41.44
2022-07-26T15:30:33.427Z,41.26
2022-07-26T15:33:01.950Z,41.26
2022-07-26T15:35:29.538Z,41.86
2022-07-26T15:37:56.368Z,41.48
2022-07-26T15:40:22.826Z,41.46
2022-07-26T15:42:51.857Z,41.13
2022-07-26T15:45:19.803Z,41.35
2022-07-26T15:48:01.093Z,41.60
2022-07-26T15:50:31.051Z,41.33
2022-07-26T15:52:58.427Z,40.93
2022-07-26T15:55:24.934Z,40.35
2022-07-26T15:57:51.827Z,40.12
2022-07-26T16:00:18.507Z,39.55
2022-07-26T16:02:45.197Z,40.61
2022-07-26T16:05:11.827Z,41.12
2022-07-26T16:07:41.389Z,41.09
2022-07-26T16:10:10.259Z,42.06
2022-07-26T16:12:36.712Z,41.59
2022-07-26T16:15:03.781Z,42.56
2022-07-26T16:17:30.999Z,41.76
2022-07-26T16:19:57.529Z,41.39
2022-07-26T16:22:23.995Z,41.60
2022-07-26T16:24:50.433Z,41.64
2022-07-26T16:27:16.843Z,41.63
2022-07-26T16:29:43.370Z,41.11
2022-07-26T16:32:10.834Z,41.94
2022-07-26T16:34:37.944Z,42.25
2022-07-26T16:37:04.815Z,42.06
2022-07-26T16:39:31.466Z,41.95
2022-07-26T16:41:59.842Z,42.30
2022-07-26T16:44:29.825Z,42.41
2022-07-26T16:46:57.188Z,42.54
2022-07-26T16:49:23.680Z,42.33
2022-07-26T16:51:50.169Z,42.45
2022-07-26T16:54:16.591Z,41.86
2022-07-26T16:56:43.020Z,42.81
2022-07-26T16:59:10.669Z,42.67
2022-07-26T17:01:37.516Z,44.17
2022-07-26T17:04:04.001Z,43.87
2022-07-26T17:06:30.532Z,45.25
2022-07-26T17:08:56.957Z,45.29
2022-07-26T17:11:23.426Z,45.17
2022-07-26T17:13:50.027Z,45.46
2022-07-26T17:16:16.517Z,46.50
2022-07-26T17:18:50.998Z,47.00
2022-07-26T17:21:17.420Z,47.17
2022-07-26T17:23:43.911Z,47.27
2022-07-26T17:26:10.340Z,47.37
2022-07-26T17:28:36.753Z,47.67
2022-07-26T17:31:03.406Z,47.93
2022-07-26T17:33:29.915Z,48.17
2022-07-26T17:35:56.563Z,48.32
2022-07-26T17:38:28.743Z,48.67
2022-07-26T17:40:56.732Z,49.19
2022-07-26T17:43:23.144Z,48.64
2022-07-26T17:45:50.396Z,48.31
2022-07-26T17:48:16.883Z,48.05
2022-07-26T17:50:43.302Z,48.37
2022-07-26T17:53:09.751Z,48.82
2022-07-26T17:55:36.282Z,48.59
2022-07-26T17:58:02.790Z,49.06
2022-07-26T18:00:29.614Z,49.63
2022-07-26T18:02:57.020Z,48.84
2022-07-26T18:05:27.299Z,49.53
2022-07-26T18:07:59.252Z,50.02
2022-07-26T18:10:27.544Z,50.74
2022-07-26T18:12:54.985Z,51.36
2022-07-26T18:15:21.552Z,51.27
2022-07-26T18:17:48.036Z,51.05
2022-07-26T18:20:14.427Z,50.00
2022-07-26T18:22:40.931Z,49.75
2022-07-26T18:25:08.007Z,50.30
2022-07-26T18:27:34.549Z,50.70
2022-07-26T18:30:00.989Z,50.90
2022-07-26T18:32:27.578Z,51.16
2022-07-26T18:34:54.058Z,51.01
2022-07-26T18:37:21.038Z,51.24
2022-07-26T18:39:54.058Z,51.03
2022-07-26T18:42:23.573Z,51.07
2022-07-26T18:44:49.964Z,50.70
2022-07-26T18:47:16.334Z,51.21
2022-07-26T18:49:43.722Z,52.26
2022-07-26T18:52:10.148Z,51.80
2022-07-26T18:54:36.825Z,51.53
2022-07-26T18:57:04.751Z,51.30
2022-07-26T18:59:31.502Z,51.50
2022-07-26T19:01:59.543Z,51.54
2022-07-26T19:04:26.268Z,51.67
2022-07-26T19:06:52.822Z,52.07
2022-07-26T19:09:19.298Z,51.72
2022-07-26T19:11:46.285Z,51.79
2022-07-26T19:14:12.922Z,51.91
2022-07-26T19:16:39.843Z,52.61
2022-07-26T19:19:06.277Z,51.98
2022-07-26T19:21:32.756Z,52.62
2022-07-26T19:23:59.176Z,53.19
2022-07-26T19:26:27.492Z,52.75
2022-07-26T19:28:54.206Z,53.45
2022-07-26T19:31:21.580Z,54.89
2022-07-26T19:33:48.053Z,54.91
2022-07-26T19:36:18.123Z,54.64
2022-07-26T19:38:52.375Z,55.70
2022-07-26T19:41:19.892Z,55.32
2022-07-26T19:43:46.311Z,56.46
2022-07-26T19:46:12.787Z,56.52
2022-07-26T19:48:39.285Z,57.28
2022-07-26T19:51:05.844Z,57.24
2022-07-26T19:53:32.339Z,57.51
2022-07-26T19:55:58.789Z,57.18
2022-07-26T19:58:26.919Z,57.31
2022-07-26T20:00:53.884Z,57.88
2022-07-26T20:03:20.319Z,56.95
2022-07-26T20:05:46.929Z,57.41
2022-07-26T20:08:13.451Z,57.84
2022-07-26T20:10:39.925Z,57.44
2022-07-26T20:13:06.386Z,57.97
2022-07-26T20:15:33.068Z,58.38
2022-07-26T20:17:59.495Z,58.26
2022-07-26T20:20:26.192Z,58.30
2022-07-26T20:22:52.636Z,58.61
2022-07-26T20:25:21.600Z,58.99
2022-07-26T20:27:51.178Z,59.00
2022-07-26T20:30:17.936Z,58.84
2022-07-26T20:32:44.765Z,60.29
2022-07-26T20:35:11.181Z,60.76
2022-07-26T20:37:37.910Z,59.78
2022-07-26T20:40:05.104Z,59.58
2022-07-26T20:42:34.135Z,59.92
2022-07-26T20:45:01.171Z,61.35
2022-07-26T20:47:27.727Z,60.13
2022-07-26T20:49:55.054Z,60.89
2022-07-26T20:52:25.699Z,62.21
2022-07-26T20:54:52.132Z,61.35
2022-07-26T20:57:18.557Z,61.99
2022-07-26T20:59:44.983Z,62.71
2022-07-26T21:02:11.455Z,64.03
2022-07-26T21:04:37.936Z,63.17
2022-07-26T21:07:04.358Z,63.04
2022-07-26T21:09:31.127Z,63.92
2022-07-26T21:11:57.790Z,63.98
2022-07-26T21:14:24.306Z,64.07
2022-07-26T21:16:50.770Z,64.49
2022-07-26T21:19:17.429Z,65.47
2022-07-26T21:21:43.968Z,64.39
2022-07-26T21:24:11.473Z,64.53
2022-07-26T21:26:38.287Z,63.99
2022-07-26T21:29:05.275Z,63.13
2022-07-26T21:31:31.778Z,64.48
2022-07-26T21:33:58.819Z,64.81
2022-07-26T21:36:25.373Z,64.21
2022-07-26T21:38:51.765Z,64.41
2022-07-26T21:41:18.193Z,63.52
2022-07-26T21:43:44.605Z,63.24
2022-07-26T21:46:13.225Z,63.51
2022-07-26T21:48:40.667Z,62.93
2022-07-26T21:51:07.404Z,62.80
2022-07-26T21:53:33.894Z,63.06
2022-07-26T21:56:00.528Z,63.18
2022-07-26T21:58:28.067Z,63.65
2022-07-26T22:01:03.319Z,63.66
2022-07-26T22:03:36.168Z,63.43
2022-07-26T22:06:02.782Z,62.81
2022-07-26T22:08:29.223Z,62.72
2022-07-26T22:10:56.247Z,63.06
2022-07-26T22:13:22.735Z,62.98
2022-07-26T22:15:49.383Z,63.64
2022-07-26T22:18:16.172Z,62.25
2022-07-26T22:20:43.995Z,63.24
2022-07-26T22:23:12.709Z,64.17
2022-07-26T22:25:39.779Z,64.82
2022-07-26T22:28:08.383Z,65.74
2022-07-26T22:30:34.925Z,66.09
2022-07-26T22:33:02.948Z,66.79
2022-07-26T22:35:34.942Z,66.74
2022-07-26T22:38:05.214Z,67.35
2022-07-26T22:40:32.888Z,67.90
2022-07-26T22:42:59.948Z,68.65
2022-07-26T22:45:26.961Z,69.34
2022-07-26T22:47:56.172Z,69.44
2022-07-26T22:50:23.406Z,69.87
2022-07-26T22:52:51.438Z,69.89
2022-07-26T22:55:17.839Z,69.85
2022-07-26T22:57:45.011Z,69.89
2022-07-26T23:00:13.703Z,70.05
2022-07-26T23:02:40.413Z,69.94
2022-07-26T23:05:07.680Z,69.39
2022-07-26T23:07:35.577Z,68.71
2022-07-26T23:10:02.740Z,66.87
2022-07-26T23:12:29.395Z,68.23
2022-07-26T23:14:55.819Z,68.65
2022-07-26T23:17:22.311Z,68.40
2022-07-26T23:19:48.726Z,69.07
2022-07-26T23:22:15.176Z,69.75
2022-07-26T23:24:41.945Z,70.12
2022-07-26T23:27:10.279Z,70.48
2022-07-26T23:29:36.816Z,69.67
2022-07-26T23:32:03.346Z,69.78
2022-07-26T23:34:29.773Z,70.30
2022-07-26T23:36:56.225Z,70.37
2022-07-26T23:39:22.647Z,70.87
2022-07-26T23:41:49.052Z,69.79
2022-07-26T23:44:15.529Z,68.87
2022-07-26T23:46:42.060Z,70.77
2022-07-26T23:49:08.937Z,70.08
2022-07-26T23:51:35.576Z,68.02
2022-07-26T23:54:02.079Z,69.21
2022-07-26T23:56:28.484Z,70.02
2022-07-26T23:58:54.986Z,70.15
